»·PEaware :: SWA687 KPHX-KABQ

SWA687 :: KPHX-KABQ

FLIGHT INFORMATION

Flight Status: Arrived
Operator:
Southwest Airlines
More flights by this operator :: More flights under this callsign
Pilot: Sanjiv S. (4490)
Aircraft: BOEING 737-800
(B738)
More flights by this aircraft type
Origin: KPHX Phoenix Sky Harbor Intl
United States
Destination: KABQ Albuquerque Intl Sunport
United States
More flights between these airports :: More routes between these airports
Route: LALUZ5 SJN CABNO KRKEE3
File this flight plan on PilotEdge
Remarks:
Altitude:
(Current/Filed)
33,000ft
Speed:
(Current/Filed)
420kts
Departed: 04-Mar-18 10:22 AM
Arrived: 04-Mar-18 11:13 AM
Distance/Time
Traveled:
285nm/0:51
Distance/Time
To Go:
Arrived

Flight Plot

Page will automatically refresh every two minutes.

Flight plan parsing failed; only flown route is shown


Map Options




Map Legend


Flown Route
Filed Route
Departure Airport
Arrival Airport
Navaid (VOR, NDB)
Fix

Horizontal Profiles

Position Reports

Time Latitude Longitude Heading Altitude Ground
Speed
04-Mar-18 09:46 33.433626 -111.994831 53 1124ft 0kts
04-Mar-18 09:47 33.433626 -111.994831 53 1124ft 0kts
04-Mar-18 09:48 33.433626 -111.994831 53 1124ft 0kts
04-Mar-18 09:49 33.433626 -111.994831 53 1124ft 0kts
04-Mar-18 09:50 33.433626 -111.994831 53 1124ft 0kts
04-Mar-18 09:51 33.433626 -111.994831 53 1124ft 0kts
04-Mar-18 09:52 33.433626 -111.994831 53 1124ft 0kts
04-Mar-18 09:53 33.433626 -111.994831 53 1124ft 0kts
04-Mar-18 09:54 33.433626 -111.994831 53 1124ft 0kts
04-Mar-18 09:55 33.433626 -111.994831 53 1124ft 0kts
04-Mar-18 09:56 33.433626 -111.994831 53 1124ft 0kts
04-Mar-18 09:57 33.433626 -111.994831 53 1124ft 0kts
04-Mar-18 09:58 33.433626 -111.994831 53 1124ft 0kts
04-Mar-18 09:59 33.433626 -111.994831 53 1124ft 0kts
04-Mar-18 10:00 33.433626 -111.994831 53 1124ft 0kts
04-Mar-18 10:01 33.433626 -111.994831 53 1124ft 0kts
04-Mar-18 10:02 33.433626 -111.994831 53 1124ft 0kts
04-Mar-18 10:03 33.433626 -111.994831 53 1124ft 0kts
04-Mar-18 10:04 33.433626 -111.994831 53 1124ft 0kts
04-Mar-18 10:05 33.433626 -111.994831 53 1124ft 0kts
04-Mar-18 10:06 33.433626 -111.994831 53 1124ft 0kts
04-Mar-18 10:07 33.433626 -111.994831 53 1124ft 0kts
04-Mar-18 10:08 33.433626 -111.994831 53 1124ft 0kts
04-Mar-18 10:09 33.433626 -111.994831 53 1124ft 0kts
04-Mar-18 10:10 33.433626 -111.994831 53 1124ft 0kts
04-Mar-18 10:11 33.433626 -111.994832 53 1124ft 0kts
04-Mar-18 10:12 33.433719 -111.995249 160 1124ft 2kts
04-Mar-18 10:13 33.434036 -111.995278 174 1124ft 0kts
04-Mar-18 10:14 33.434036 -111.995278 174 1124ft 0kts
04-Mar-18 10:15 33.434036 -111.995278 174 1124ft 0kts
04-Mar-18 10:16 33.434034 -111.995278 173 1124ft 0kts
04-Mar-18 10:17 33.433449 -111.995292 182 1123ft 0kts
04-Mar-18 10:18 33.433449 -111.995292 182 1123ft 0kts
04-Mar-18 10:19 33.433440 -111.995292 182 1123ft 0kts
04-Mar-18 10:20 33.433419 -111.995293 182 1123ft 0kts
04-Mar-18 10:21 33.432503 -111.995306 170 1123ft 5kts
04-Mar-18 10:22 33.432026 -111.993624 134 1123ft 0kts
04-Mar-18 10:23 33.432026 -111.993624 134 1123ft 0kts
04-Mar-18 10:24 33.432026 -111.993624 134 1123ft 0kts
04-Mar-18 10:25 33.432026 -111.993624 134 1123ft 0kts
04-Mar-18 10:26 33.431892 -111.993494 149 1123ft 2kts
04-Mar-18 10:27 33.431095 -111.993617 247 1123ft 4kts
04-Mar-18 10:28 33.431035 -111.994924 269 1123ft 26kts
04-Mar-18 10:29 33.429216 -112.038063 260 1974ft 209kts
04-Mar-18 10:30 33.458082 -112.099472 316 5108ft 251kts
04-Mar-18 10:31 33.513625 -112.156668 313 8346ft 282kts
04-Mar-18 10:32 33.592032 -112.173386 2 11032ft 343kts
04-Mar-18 10:33 33.666903 -112.109867 48 14035ft 374kts
04-Mar-18 10:34 33.731993 -112.018250 61 16825ft 395kts
04-Mar-18 10:35 33.741167 -111.895159 100 19398ft 403kts
04-Mar-18 10:36 33.729746 -111.762178 100 21815ft 423kts
04-Mar-18 10:37 33.717692 -111.620142 99 24061ft 442kts
04-Mar-18 10:38 33.705003 -111.472329 99 26091ft 460kts
04-Mar-18 10:39 33.691856 -111.321244 99 27891ft 477kts
04-Mar-18 10:40 33.718313 -111.175341 62 29472ft 490kts
04-Mar-18 10:41 33.769396 -111.038143 63 31555ft 484kts
04-Mar-18 10:42 33.817903 -110.901956 64 33119ft 485kts
04-Mar-18 10:43 33.868523 -110.758839 64 33120ft 515kts
04-Mar-18 10:44 33.920496 -110.611066 64 33098ft 513kts
04-Mar-18 10:45 33.971730 -110.464758 64 33100ft 513kts
04-Mar-18 10:46 34.025820 -110.309661 64 33108ft 526kts
04-Mar-18 10:47 34.082330 -110.146941 64 33096ft 528kts
04-Mar-18 10:48 34.137280 -109.987735 64 33099ft 528kts
04-Mar-18 10:49 34.193346 -109.824435 64 33101ft 528kts
04-Mar-18 10:50 34.248962 -109.661572 64 33104ft 528kts
04-Mar-18 10:51 34.304377 -109.498464 64 33095ft 528kts
04-Mar-18 10:52 34.358934 -109.337053 65 33073ft 529kts
04-Mar-18 10:53 34.414461 -109.172210 65 33051ft 529kts
04-Mar-18 10:54 34.442882 -109.000080 83 33056ft 525kts
04-Mar-18 10:55 34.463459 -108.826400 82 33069ft 524kts
04-Mar-18 10:56 34.485208 -108.651891 81 33084ft 524kts
04-Mar-18 10:57 34.507869 -108.477669 78 33082ft 524kts
04-Mar-18 10:58 34.533832 -108.330835 78 32693ft 476kts
04-Mar-18 10:59 34.559013 -108.184219 79 30465ft 478kts
04-Mar-18 11:00 34.585651 -108.026819 79 28095ft 474kts
04-Mar-18 11:01 34.611249 -107.874311 79 25802ft 455kts
04-Mar-18 11:02 34.653010 -107.733658 60 23586ft 438kts
04-Mar-18 11:03 34.709283 -107.605422 61 23024ft 436kts
04-Mar-18 11:04 34.764813 -107.476196 61 21233ft 427kts
04-Mar-18 11:05 34.817043 -107.354039 61 19216ft 404kts
04-Mar-18 11:06 34.866626 -107.236792 63 17246ft 380kts
04-Mar-18 11:07 34.911843 -107.127699 62 15537ft 357kts
04-Mar-18 11:08 34.954376 -107.027999 62 13958ft 347kts
04-Mar-18 11:09 34.997929 -106.929225 60 12383ft 333kts
04-Mar-18 11:10 35.038497 -106.843586 61 10991ft 305kts
04-Mar-18 11:11 35.072211 -106.771662 62 9919ft 277kts
04-Mar-18 11:12 35.098135 -106.714206 63 8976ft 262kts
04-Mar-18 11:13 35.120408 -106.664950 63 8462ft 225kts
04-Mar-18 11:14 35.144446 -106.615583 61 7314ft 218kts
04-Mar-18 11:15 35.155336 -106.560954 121 5973ft 198kts
04-Mar-18 11:16 35.125498 -106.524419 151 5877ft 192kts
04-Mar-18 11:17 35.091798 -106.535071 235 6605ft 213kts
04-Mar-18 11:18 35.070554 -106.571572 225 5949ft 159kts
04-Mar-18 11:19 35.045851 -106.602058 222 5425ft 144kts
04-Mar-18 11:20 35.029986 -106.621713 276 5321ft 19kts
04-Mar-18 11:21 35.032180 -106.620760 45 5322ft 12kts
04-Mar-18 11:22 35.033852 -106.618728 42 5322ft 9kts
04-Mar-18 11:23 35.036013 -106.616123 45 5322ft 19kts
04-Mar-18 11:24 35.039497 -106.613845 2 5322ft 19kts
04-Mar-18 11:25 35.043987 -106.613794 1 5322ft 22kts
04-Mar-18 11:26 35.046764 -106.613619 309 5322ft 6kts
04-Mar-18 11:27 35.047053 -106.614053 309 5322ft 0kts

Navigation Log

Ident Type
Flight plan parsing failed, navigation log unavailable